METAR Data
IDs: Format: Raw Decoded Include TAF

Data at: 0811 UTC 18 Sep 2021

KFOD 180756Z AUTO 08003KT 10SM CLR 10/07 A3023 RMK AO2 SLP263 T01000072